sensor_id;sensor_type;location;lat;lon;timestamp;temperature;humidity
11474;DHT22;5793;52.238;13.438;2023-02-28T00:01:36;0.30;99.90
11474;DHT22;5793;52.238;13.438;2023-02-28T00:04:04;0.20;99.90
11474;DHT22;5793;52.238;13.438;2023-02-28T00:06:32;0.20;99.90
11474;DHT22;5793;52.238;13.438;2023-02-28T00:09:01;0.20;99.90
11474;DHT22;5793;52.238;13.438;2023-02-28T00:11:29;0.10;99.90
11474;DHT22;5793;52.238;13.438;2023-02-28T00:13:57;0.10;99.90
11474;DHT22;5793;52.238;13.438;2023-02-28T00:16:26;0.10;99.90
11474;DHT22;5793;52.238;13.438;2023-02-28T00:18:53;0.20;99.90
11474;DHT22;5793;52.238;13.438;2023-02-28T00:21:21;0.30;99.90
11474;DHT22;5793;52.238;13.438;2023-02-28T00:23:49;0.20;99.90
11474;DHT22;5793;52.238;13.438;2023-02-28T00:26:18;0.20;99.90
11474;DHT22;5793;52.238;13.438;2023-02-28T00:28:47;0.10;99.90
11474;DHT22;5793;52.238;13.438;2023-02-28T00:31:15;0.10;99.90
11474;DHT22;5793;52.238;13.438;2023-02-28T00:33:43;0.10;99.90
11474;DHT22;5793;52.238;13.438;2023-02-28T00:36:11;0.10;99.90
11474;DHT22;5793;52.238;13.438;2023-02-28T00:38:40;0.10;99.90
11474;DHT22;5793;52.238;13.438;2023-02-28T00:41:08;0.10;99.90
11474;DHT22;5793;52.238;13.438;2023-02-28T00:43:38;0.20;99.90
11474;DHT22;5793;52.238;13.438;2023-02-28T00:46:07;0.10;99.90
11474;DHT22;5793;52.238;13.438;2023-02-28T00:48:36;-0.10;99.90
11474;DHT22;5793;52.238;13.438;2023-02-28T00:51:04;-0.10;99.90
11474;DHT22;5793;52.238;13.438;2023-02-28T00:53:32;-0.10;99.90
11474;DHT22;5793;52.238;13.438;2023-02-28T00:56:00;-0.10;99.90
11474;DHT22;5793;52.238;13.438;2023-02-28T00:58:28;-0.10;99.90
11474;DHT22;5793;52.238;13.438;2023-02-28T01:00:58;-0.10;99.90
11474;DHT22;5793;52.238;13.438;2023-02-28T01:03:26;0.00;99.90
11474;DHT22;5793;52.238;13.438;2023-02-28T01:05:54;0.00;99.90
11474;DHT22;5793;52.238;13.438;2023-02-28T01:08:21;0.10;99.90
11474;DHT22;5793;52.238;13.438;2023-02-28T01:10:49;0.30;99.90
11474;DHT22;5793;52.238;13.438;2023-02-28T01:13:18;0.30;99.90
11474;DHT22;5793;52.238;13.438;2023-02-28T01:15:49;0.40;99.90
11474;DHT22;5793;52.238;13.438;2023-02-28T01:18:20;0.40;99.90
11474;DHT22;5793;52.238;13.438;2023-02-28T01:20:48;0.60;99.90
11474;DHT22;5793;52.238;13.438;2023-02-28T01:23:18;0.60;99.90
11474;DHT22;5793;52.238;13.438;2023-02-28T01:25:46;0.50;99.90
11474;DHT22;5793;52.238;13.438;2023-02-28T01:28:13;0.50;99.90
11474;DHT22;5793;52.238;13.438;2023-02-28T01:30:41;0.40;99.90
11474;DHT22;5793;52.238;13.438;2023-02-28T01:33:09;0.30;99.90
11474;DHT22;5793;52.238;13.438;2023-02-28T01:35:38;0.20;99.90
11474;DHT22;5793;52.238;13.438;2023-02-28T01:38:06;0.00;99.90
11474;DHT22;5793;52.238;13.438;2023-02-28T01:40:47;-0.10;99.90
11474;DHT22;5793;52.238;13.438;2023-02-28T01:43:20;-0.10;99.90
11474;DHT22;5793;52.238;13.438;2023-02-28T01:45:50;-0.20;99.90
11474;DHT22;5793;52.238;13.438;2023-02-28T01:48:19;-0.30;99.90
11474;DHT22;5793;52.238;13.438;2023-02-28T01:50:50;-0.40;99.90
11474;DHT22;5793;52.238;13.438;2023-02-28T01:53:19;-0.50;99.90
11474;DHT22;5793;52.238;13.438;2023-02-28T01:55:51;-0.60;99.90
11474;DHT22;5793;52.238;13.438;2023-02-28T01:58:20;-0.60;99.90
11474;DHT22;5793;52.238;13.438;2023-02-28T02:00:48;-0.70;99.90
11474;DHT22;5793;52.238;13.438;2023-02-28T02:03:18;-0.70;99.90
11474;DHT22;5793;52.238;13.438;2023-02-28T02:05:47;-0.80;99.90
11474;DHT22;5793;52.238;13.438;2023-02-28T02:08:19;-0.80;99.90
11474;DHT22;5793;52.238;13.438;2023-02-28T02:10:49;-0.70;99.90
11474;DHT22;5793;52.238;13.438;2023-02-28T02:13:34;-0.80;99.90
11474;DHT22;5793;52.238;13.438;2023-02-28T02:16:14;-0.90;99.90
11474;DHT22;5793;52.238;13.438;2023-02-28T02:18:47;-1.00;99.90
11474;DHT22;5793;52.238;13.438;2023-02-28T02:21:42;-1.00;99.90
11474;DHT22;5793;52.238;13.438;2023-02-28T02:30:48;-1.10;99.90
11474;DHT22;5793;52.238;13.438;2023-02-28T02:33:34;-1.10;99.90
11474;DHT22;5793;52.238;13.438;2023-02-28T02:36:13;-1.10;99.90
11474;DHT22;5793;52.238;13.438;2023-02-28T02:38:48;-1.10;99.90
11474;DHT22;5793;52.238;13.438;2023-02-28T02:41:19;-1.10;99.90
11474;DHT22;5793;52.238;13.438;2023-02-28T02:43:52;-1.20;99.90
11474;DHT22;5793;52.238;13.438;2023-02-28T02:46:23;-1.30;99.90
11474;DHT22;5793;52.238;13.438;2023-02-28T02:48:54;-1.40;99.90
11474;DHT22;5793;52.238;13.438;2023-02-28T02:51:25;-1.50;99.90
11474;DHT22;5793;52.238;13.438;2023-02-28T02:53:57;-1.60;99.90
11474;DHT22;5793;52.238;13.438;2023-02-28T02:56:28;-1.50;99.90
11474;DHT22;5793;52.238;13.438;2023-02-28T02:59:02;-1.60;99.90
11474;DHT22;5793;52.238;13.438;2023-02-28T03:01:31;-1.70;99.90
11474;DHT22;5793;52.238;13.438;2023-02-28T03:04:03;-1.80;99.90
11474;DHT22;5793;52.238;13.438;2023-02-28T03:06:33;-1.90;99.90
11474;DHT22;5793;52.238;13.438;2023-02-28T03:09:02;-2.00;99.90
11474;DHT22;5793;52.238;13.438;2023-02-28T03:11:31;-2.00;99.90
11474;DHT22;5793;52.238;13.438;2023-02-28T03:14:15;-2.10;99.90
11474;DHT22;5793;52.238;13.438;2023-02-28T03:19:53;-2.20;99.90
11474;DHT22;5793;52.238;13.438;2023-02-28T03:22:50;-2.20;99.90
11474;DHT22;5793;52.238;13.438;2023-02-28T03:25:29;-2.30;99.90
11474;DHT22;5793;52.238;13.438;2023-02-28T03:28:03;-2.40;99.90
11474;DHT22;5793;52.238;13.438;2023-02-28T03:30:38;-2.40;99.90
11474;DHT22;5793;52.238;13.438;2023-02-28T03:33:11;-2.50;99.90
11474;DHT22;5793;52.238;13.438;2023-02-28T03:35:43;-2.30;99.90
11474;DHT22;5793;52.238;13.438;2023-02-28T03:38:18;-2.30;99.90
11474;DHT22;5793;52.238;13.438;2023-02-28T03:40:49;-2.40;99.90
11474;DHT22;5793;52.238;13.438;2023-02-28T03:43:22;-2.50;99.90
11474;DHT22;5793;52.238;13.438;2023-02-28T03:45:52;-2.50;99.90
11474;DHT22;5793;52.238;13.438;2023-02-28T03:48:23;-2.60;99.90
11474;DHT22;5793;52.238;13.438;2023-02-28T03:50:53;-2.40;99.90
11474;DHT22;5793;52.238;13.438;2023-02-28T03:53:28;-2.70;99.90
11474;DHT22;5793;52.238;13.438;2023-02-28T03:56:02;-2.70;99.90
11474;DHT22;5793;52.238;13.438;2023-02-28T03:58:39;-2.80;99.90
11474;DHT22;5793;52.238;13.438;2023-02-28T04:01:12;-2.80;99.90
11474;DHT22;5793;52.238;13.438;2023-02-28T04:03:40;-2.80;99.90
11474;DHT22;5793;52.238;13.438;2023-02-28T04:06:14;-2.80;99.90
11474;DHT22;5793;52.238;13.438;2023-02-28T04:08:45;-2.90;99.90
11474;DHT22;5793;52.238;13.438;2023-02-28T04:11:22;-2.90;99.90
11474;DHT22;5793;52.238;13.438;2023-02-28T04:13:51;-3.00;99.90
11474;DHT22;5793;52.238;13.438;2023-02-28T04:16:19;-3.00;99.90
11474;DHT22;5793;52.238;13.438;2023-02-28T04:19:00;-3.10;99.90
11474;DHT22;5793;52.238;13.438;2023-02-28T04:21:29;-3.10;99.90
11474;DHT22;5793;52.238;13.438;2023-02-28T04:23:59;-3.10;99.90
11474;DHT22;5793;52.238;13.438;2023-02-28T04:26:28;-3.20;99.90
11474;DHT22;5793;52.238;13.438;2023-02-28T04:28:57;-3.20;99.90
11474;DHT22;5793;52.238;13.438;2023-02-28T04:31:25;-3.20;99.90
11474;DHT22;5793;52.238;13.438;2023-02-28T04:33:53;-3.20;99.90
11474;DHT22;5793;52.238;13.438;2023-02-28T04:36:21;-3.30;99.90
11474;DHT22;5793;52.238;13.438;2023-02-28T04:38:49;-3.40;99.90
11474;DHT22;5793;52.238;13.438;2023-02-28T04:41:19;-3.40;99.90
11474;DHT22;5793;52.238;13.438;2023-02-28T04:43:47;-3.50;99.90
11474;DHT22;5793;52.238;13.438;2023-02-28T04:46:15;-3.50;99.90
11474;DHT22;5793;52.238;13.438;2023-02-28T04:48:43;-3.40;99.90
11474;DHT22;5793;52.238;13.438;2023-02-28T04:51:13;-3.50;99.90
11474;DHT22;5793;52.238;13.438;2023-02-28T04:53:41;-3.60;99.90
11474;DHT22;5793;52.238;13.438;2023-02-28T04:56:12;-3.50;99.90
11474;DHT22;5793;52.238;13.438;2023-02-28T04:58:41;-3.40;99.90
11474;DHT22;5793;52.238;13.438;2023-02-28T05:01:18;-3.40;99.90
11474;DHT22;5793;52.238;13.438;2023-02-28T05:03:47;-3.50;99.90
11474;DHT22;5793;52.238;13.438;2023-02-28T05:06:15;-3.40;99.90
11474;DHT22;5793;52.238;13.438;2023-02-28T05:08:43;-3.40;99.90
11474;DHT22;5793;52.238;13.438;2023-02-28T05:11:16;-3.40;99.90
11474;DHT22;5793;52.238;13.438;2023-02-28T05:13:45;-3.40;99.90
11474;DHT22;5793;52.238;13.438;2023-02-28T05:16:13;-3.50;99.90
11474;DHT22;5793;52.238;13.438;2023-02-28T05:18:42;-3.60;99.90
11474;DHT22;5793;52.238;13.438;2023-02-28T05:21:25;-3.70;99.90
11474;DHT22;5793;52.238;13.438;2023-02-28T05:23:55;-3.70;99.90
11474;DHT22;5793;52.238;13.438;2023-02-28T05:26:23;-3.80;99.90
11474;DHT22;5793;52.238;13.438;2023-02-28T05:28:52;-3.80;99.90
11474;DHT22;5793;52.238;13.438;2023-02-28T05:31:20;-3.80;99.90
11474;DHT22;5793;52.238;13.438;2023-02-28T05:33:48;-3.80;99.90
11474;DHT22;5793;52.238;13.438;2023-02-28T05:36:16;-3.90;99.90
11474;DHT22;5793;52.238;13.438;2023-02-28T05:38:46;-3.90;99.90
11474;DHT22;5793;52.238;13.438;2023-02-28T05:41:14;-3.90;99.90
11474;DHT22;5793;52.238;13.438;2023-02-28T05:43:42;-4.00;99.90
11474;DHT22;5793;52.238;13.438;2023-02-28T05:46:11;-4.00;99.90
11474;DHT22;5793;52.238;13.438;2023-02-28T05:48:42;-4.00;99.90
11474;DHT22;5793;52.238;13.438;2023-02-28T05:51:10;-4.10;99.90
11474;DHT22;5793;52.238;13.438;2023-02-28T05:53:38;-4.00;99.90
11474;DHT22;5793;52.238;13.438;2023-02-28T05:56:06;-4.00;99.90
11474;DHT22;5793;52.238;13.438;2023-02-28T05:58:34;-4.00;99.90
11474;DHT22;5793;52.238;13.438;2023-02-28T06:01:22;-4.10;99.90
11474;DHT22;5793;52.238;13.438;2023-02-28T06:03:50;-4.10;99.90
11474;DHT22;5793;52.238;13.438;2023-02-28T06:06:18;-4.10;99.90
11474;DHT22;5793;52.238;13.438;2023-02-28T06:08:46;-4.10;99.90
11474;DHT22;5793;52.238;13.438;2023-02-28T06:11:14;-4.10;99.90
11474;DHT22;5793;52.238;13.438;2023-02-28T06:13:42;-4.10;99.90
11474;DHT22;5793;52.238;13.438;2023-02-28T06:16:11;-4.20;99.90
11474;DHT22;5793;52.238;13.438;2023-02-28T06:18:40;-4.10;99.90
11474;DHT22;5793;52.238;13.438;2023-02-28T06:21:08;-4.10;99.90
11474;DHT22;5793;52.238;13.438;2023-02-28T06:23:36;-4.10;99.90
11474;DHT22;5793;52.238;13.438;2023-02-28T06:26:04;-4.10;99.90
11474;DHT22;5793;52.238;13.438;2023-02-28T06:28:32;-4.10;99.90
11474;DHT22;5793;52.238;13.438;2023-02-28T06:31:06;-4.00;99.90
11474;DHT22;5793;52.238;13.438;2023-02-28T06:33:34;-3.90;99.90
11474;DHT22;5793;52.238;13.438;2023-02-28T06:36:04;-3.90;99.90
11474;DHT22;5793;52.238;13.438;2023-02-28T06:38:33;-4.00;99.90
11474;DHT22;5793;52.238;13.438;2023-02-28T06:41:01;-3.90;99.90
11474;DHT22;5793;52.238;13.438;2023-02-28T06:43:31;-3.70;99.90
11474;DHT22;5793;52.238;13.438;2023-02-28T06:46:01;-3.60;99.90
11474;DHT22;5793;52.238;13.438;2023-02-28T06:48:30;-3.60;99.90
11474;DHT22;5793;52.238;13.438;2023-02-28T06:51:04;-3.40;99.90
11474;DHT22;5793;52.238;13.438;2023-02-28T06:53:32;-3.30;99.90
11474;DHT22;5793;52.238;13.438;2023-02-28T06:56:03;-3.30;99.90
11474;DHT22;5793;52.238;13.438;2023-02-28T06:58:32;-3.20;99.90
11474;DHT22;5793;52.238;13.438;2023-02-28T07:01:00;-3.20;99.90
11474;DHT22;5793;52.238;13.438;2023-02-28T07:03:28;-3.10;99.90
11474;DHT22;5793;52.238;13.438;2023-02-28T07:05:59;-3.00;99.90
11474;DHT22;5793;52.238;13.438;2023-02-28T07:08:29;-3.00;99.90
11474;DHT22;5793;52.238;13.438;2023-02-28T07:10:58;-2.90;99.90
11474;DHT22;5793;52.238;13.438;2023-02-28T07:13:26;-2.80;99.90
11474;DHT22;5793;52.238;13.438;2023-02-28T07:15:54;-2.70;99.90
11474;DHT22;5793;52.238;13.438;2023-02-28T07:18:23;-2.60;99.90
11474;DHT22;5793;52.238;13.438;2023-02-28T07:20:51;-2.50;99.90
11474;DHT22;5793;52.238;13.438;2023-02-28T07:23:19;-2.40;99.90
11474;DHT22;5793;52.238;13.438;2023-02-28T07:25:49;-2.30;99.90
11474;DHT22;5793;52.238;13.438;2023-02-28T07:28:17;-2.20;99.90
11474;DHT22;5793;52.238;13.438;2023-02-28T07:30:45;-2.10;99.90
11474;DHT22;5793;52.238;13.438;2023-02-28T07:33:13;-1.90;99.90
11474;DHT22;5793;52.238;13.438;2023-02-28T07:35:41;-1.80;99.90
11474;DHT22;5793;52.238;13.438;2023-02-28T07:38:09;-1.70;99.90
11474;DHT22;5793;52.238;13.438;2023-02-28T07:40:37;-1.50;99.90
11474;DHT22;5793;52.238;13.438;2023-02-28T07:43:06;-1.30;99.90
11474;DHT22;5793;52.238;13.438;2023-02-28T07:45:34;-1.20;99.90
11474;DHT22;5793;52.238;13.438;2023-02-28T07:48:07;-1.00;99.90
11474;DHT22;5793;52.238;13.438;2023-02-28T07:50:36;-0.90;99.90
11474;DHT22;5793;52.238;13.438;2023-02-28T07:53:04;-0.60;99.90
11474;DHT22;5793;52.238;13.438;2023-02-28T07:55:32;-0.50;99.90
11474;DHT22;5793;52.238;13.438;2023-02-28T07:58:00;-0.40;99.90
11474;DHT22;5793;52.238;13.438;2023-02-28T08:00:29;-0.30;99.90
11474;DHT22;5793;52.238;13.438;2023-02-28T08:02:58;-0.10;99.90
11474;DHT22;5793;52.238;13.438;2023-02-28T08:05:26;0.10;99.90
11474;DHT22;5793;52.238;13.438;2023-02-28T08:07:54;0.40;99.90
11474;DHT22;5793;52.238;13.438;2023-02-28T08:10:23;0.80;99.90
11474;DHT22;5793;52.238;13.438;2023-02-28T08:12:51;0.90;99.90
11474;DHT22;5793;52.238;13.438;2023-02-28T08:15:19;0.90;99.90
11474;DHT22;5793;52.238;13.438;2023-02-28T08:17:48;1.00;99.90
11474;DHT22;5793;52.238;13.438;2023-02-28T08:20:15;1.10;99.90
11474;DHT22;5793;52.238;13.438;2023-02-28T08:22:43;1.30;99.90
11474;DHT22;5793;52.238;13.438;2023-02-28T08:25:11;1.40;99.90
11474;DHT22;5793;52.238;13.438;2023-02-28T08:27:39;1.50;99.90
11474;DHT22;5793;52.238;13.438;2023-02-28T08:30:09;1.60;99.90
11474;DHT22;5793;52.238;13.438;2023-02-28T08:32:38;1.70;99.90
11474;DHT22;5793;52.238;13.438;2023-02-28T08:35:08;1.90;99.90
11474;DHT22;5793;52.238;13.438;2023-02-28T08:37:36;2.00;99.90
11474;DHT22;5793;52.238;13.438;2023-02-28T08:40:05;2.10;99.90
11474;DHT22;5793;52.238;13.438;2023-02-28T08:42:34;2.50;99.90
11474;DHT22;5793;52.238;13.438;2023-02-28T08:45:02;4.20;99.90
11474;DHT22;5793;52.238;13.438;2023-02-28T08:47:30;8.20;99.90
11474;DHT22;5793;52.238;13.438;2023-02-28T08:49:58;12.40;76.30
11474;DHT22;5793;52.238;13.438;2023-02-28T08:52:27;15.90;55.60
11474;DHT22;5793;52.238;13.438;2023-02-28T08:54:54;19.00;46.80
11474;DHT22;5793;52.238;13.438;2023-02-28T08:57:22;21.00;43.10
11474;DHT22;5793;52.238;13.438;2023-02-28T08:59:52;22.70;40.70
11474;DHT22;5793;52.238;13.438;2023-02-28T09:02:20;22.30;37.50
11474;DHT22;5793;52.238;13.438;2023-02-28T09:04:48;22.20;36.90
11474;DHT22;5793;52.238;13.438;2023-02-28T09:07:16;21.20;36.50
11474;DHT22;5793;52.238;13.438;2023-02-28T09:09:45;19.40;38.50
11474;DHT22;5793;52.238;13.438;2023-02-28T09:12:21;19.80;36.90
11474;DHT22;5793;52.238;13.438;2023-02-28T09:14:49;18.40;36.70
11474;DHT22;5793;52.238;13.438;2023-02-28T09:17:17;18.20;38.60
11474;DHT22;5793;52.238;13.438;2023-02-28T09:19:47;18.70;39.80
11474;DHT22;5793;52.238;13.438;2023-02-28T09:22:16;19.70;36.50
11474;DHT22;5793;52.238;13.438;2023-02-28T09:24:45;20.00;35.30
11474;DHT22;5793;52.238;13.438;2023-02-28T09:27:13;19.60;35.90
11474;DHT22;5793;52.238;13.438;2023-02-28T09:29:41;20.20;35.50
11474;DHT22;5793;52.238;13.438;2023-02-28T09:32:08;20.20;33.30
11474;DHT22;5793;52.238;13.438;2023-02-28T09:34:37;21.00;31.80
11474;DHT22;5793;52.238;13.438;2023-02-28T09:37:05;20.70;31.50
11474;DHT22;5793;52.238;13.438;2023-02-28T09:39:32;18.80;31.40
11474;DHT22;5793;52.238;13.438;2023-02-28T09:42:02;18.40;34.20
11474;DHT22;5793;52.238;13.438;2023-02-28T09:44:35;18.90;32.20
11474;DHT22;5793;52.238;13.438;2023-02-28T09:47:10;17.30;33.70
11474;DHT22;5793;52.238;13.438;2023-02-28T09:49:43;16.60;35.30
11474;DHT22;5793;52.238;13.438;2023-02-28T09:52:17;16.90;36.00
11474;DHT22;5793;52.238;13.438;2023-02-28T09:54:46;16.70;36.30
11474;DHT22;5793;52.238;13.438;2023-02-28T09:57:20;15.60;36.00
11474;DHT22;5793;52.238;13.438;2023-02-28T10:00:03;15.90;38.10
11474;DHT22;5793;52.238;13.438;2023-02-28T10:02:46;15.70;37.10
11474;DHT22;5793;52.238;13.438;2023-02-28T10:05:16;18.10;36.30
11474;DHT22;5793;52.238;13.438;2023-02-28T10:07:55;20.50;33.50
11474;DHT22;5793;52.238;13.438;2023-02-28T10:10:29;19.10;32.90
11474;DHT22;5793;52.238;13.438;2023-02-28T10:13:04;16.50;35.80
11474;DHT22;5793;52.238;13.438;2023-02-28T10:15:34;17.90;35.80
11474;DHT22;5793;52.238;13.438;2023-02-28T10:18:05;19.10;33.50
11474;DHT22;5793;52.238;13.438;2023-02-28T10:20:38;19.60;32.80
11474;DHT22;5793;52.238;13.438;2023-02-28T10:23:13;19.60;33.20
11474;DHT22;5793;52.238;13.438;2023-02-28T10:25:50;19.10;34.10
11474;DHT22;5793;52.238;13.438;2023-02-28T10:28:22;19.40;33.70
11474;DHT22;5793;52.238;13.438;2023-02-28T10:30:53;19.90;33.10
11474;DHT22;5793;52.238;13.438;2023-02-28T10:33:25;19.50;33.10
11474;DHT22;5793;52.238;13.438;2023-02-28T10:35:55;20.00;31.80
11474;DHT22;5793;52.238;13.438;2023-02-28T10:38:25;19.50;32.30
11474;DHT22;5793;52.238;13.438;2023-02-28T10:41:05;19.70;32.80
11474;DHT22;5793;52.238;13.438;2023-02-28T10:43:35;18.40;32.80
11474;DHT22;5793;52.238;13.438;2023-02-28T10:46:05;18.30;34.50
11474;DHT22;5793;52.238;13.438;2023-02-28T10:48:39;18.40;32.60
11474;DHT22;5793;52.238;13.438;2023-02-28T10:51:10;19.40;32.10
11474;DHT22;5793;52.238;13.438;2023-02-28T10:53:47;17.20;33.50
11474;DHT22;5793;52.238;13.438;2023-02-28T10:56:27;16.90;34.20
11474;DHT22;5793;52.238;13.438;2023-02-28T10:58:59;17.10;33.90
11474;DHT22;5793;52.238;13.438;2023-02-28T11:01:38;15.90;34.40
11474;DHT22;5793;52.238;13.438;2023-02-28T11:04:18;15.40;35.70
11474;DHT22;5793;52.238;13.438;2023-02-28T11:06:51;16.10;35.60
11474;DHT22;5793;52.238;13.438;2023-02-28T11:09:27;17.30;33.60
11474;DHT22;5793;52.238;13.438;2023-02-28T11:11:56;17.80;34.40
11474;DHT22;5793;52.238;13.438;2023-02-28T11:14:28;17.10;33.50
11474;DHT22;5793;52.238;13.438;2023-02-28T11:17:03;16.90;34.30
11474;DHT22;5793;52.238;13.438;2023-02-28T11:19:44;16.70;34.20
11474;DHT22;5793;52.238;13.438;2023-02-28T11:22:18;16.60;34.60
11474;DHT22;5793;52.238;13.438;2023-02-28T11:24:48;17.40;35.10
11474;DHT22;5793;52.238;13.438;2023-02-28T11:27:26;16.80;34.80
11474;DHT22;5793;52.238;13.438;2023-02-28T11:30:23;15.30;36.50
11474;DHT22;5793;52.238;13.438;2023-02-28T11:32:51;14.50;37.50
11474;DHT22;5793;52.238;13.438;2023-02-28T11:35:24;14.70;39.00
11474;DHT22;5793;52.238;13.438;2023-02-28T11:37:53;15.10;38.40
11474;DHT22;5793;52.238;13.438;2023-02-28T11:40:27;14.60;39.10
11474;DHT22;5793;52.238;13.438;2023-02-28T11:43:12;13.50;41.10
11474;DHT22;5793;52.238;13.438;2023-02-28T11:45:54;12.20;41.30
11474;DHT22;5793;52.238;13.438;2023-02-28T11:48:27;10.70;44.50
11474;DHT22;5793;52.238;13.438;2023-02-28T11:51:08;10.10;46.90
11474;DHT22;5793;52.238;13.438;2023-02-28T11:53:51;9.40;48.30
11474;DHT22;5793;52.238;13.438;2023-02-28T11:56:28;8.50;50.60
11474;DHT22;5793;52.238;13.438;2023-02-28T11:59:11;8.00;52.10
11474;DHT22;5793;52.238;13.438;2023-02-28T12:01:59;7.80;53.20
11474;DHT22;5793;52.238;13.438;2023-02-28T12:04:41;8.00;54.50
11474;DHT22;5793;52.238;13.438;2023-02-28T12:07:18;8.00;55.00
11474;DHT22;5793;52.238;13.438;2023-02-28T12:09:56;7.90;55.50
11474;DHT22;5793;52.238;13.438;2023-02-28T12:12:38;7.70;55.70
11474;DHT22;5793;52.238;13.438;2023-02-28T12:15:28;7.80;54.40
11474;DHT22;5793;52.238;13.438;2023-02-28T12:18:12;7.90;55.30
11474;DHT22;5793;52.238;13.438;2023-02-28T12:20:48;7.90;55.50
11474;DHT22;5793;52.238;13.438;2023-02-28T12:23:33;7.70;55.00
11474;DHT22;5793;52.238;13.438;2023-02-28T12:26:10;7.70;55.10
11474;DHT22;5793;52.238;13.438;2023-02-28T12:28:43;7.60;55.00
11474;DHT22;5793;52.238;13.438;2023-02-28T12:31:18;7.50;55.20
11474;DHT22;5793;52.238;13.438;2023-02-28T12:33:53;7.50;56.00
11474;DHT22;5793;52.238;13.438;2023-02-28T12:36:21;7.40;56.40
11474;DHT22;5793;52.238;13.438;2023-02-28T12:38:53;7.40;55.70
11474;DHT22;5793;52.238;13.438;2023-02-28T12:41:29;7.60;56.70
11474;DHT22;5793;52.238;13.438;2023-02-28T12:44:02;7.80;56.50
11474;DHT22;5793;52.238;13.438;2023-02-28T12:46:35;7.80;55.80
11474;DHT22;5793;52.238;13.438;2023-02-28T12:49:09;7.80;54.80
11474;DHT22;5793;52.238;13.438;2023-02-28T12:51:38;7.90;55.70
11474;DHT22;5793;52.238;13.438;2023-02-28T12:54:14;7.90;55.40
11474;DHT22;5793;52.238;13.438;2023-02-28T12:56:49;7.90;56.00
11474;DHT22;5793;52.238;13.438;2023-02-28T12:59:25;8.00;56.40
11474;DHT22;5793;52.238;13.438;2023-02-28T13:02:09;7.90;56.80
11474;DHT22;5793;52.238;13.438;2023-02-28T13:04:59;7.90;56.40
11474;DHT22;5793;52.238;13.438;2023-02-28T13:10:41;7.80;56.60
11474;DHT22;5793;52.238;13.438;2023-02-28T13:13:15;7.80;56.30
11474;DHT22;5793;52.238;13.438;2023-02-28T13:15:58;7.90;56.90
11474;DHT22;5793;52.238;13.438;2023-02-28T13:18:32;7.90;56.80
11474;DHT22;5793;52.238;13.438;2023-02-28T13:21:01;8.00;55.20
11474;DHT22;5793;52.238;13.438;2023-02-28T13:23:41;7.60;55.70
11474;DHT22;5793;52.238;13.438;2023-02-28T13:29:30;7.50;56.60
11474;DHT22;5793;52.238;13.438;2023-02-28T13:35:16;7.40;56.20
11474;DHT22;5793;52.238;13.438;2023-02-28T13:38:31;7.30;55.60
11474;DHT22;5793;52.238;13.438;2023-02-28T13:44:03;7.10;57.70
11474;DHT22;5793;52.238;13.438;2023-02-28T13:46:32;7.20;58.10
11474;DHT22;5793;52.238;13.438;2023-02-28T13:49:23;7.10;57.80
11474;DHT22;5793;52.238;13.438;2023-02-28T13:51:53;7.00;58.30
11474;DHT22;5793;52.238;13.438;2023-02-28T13:54:37;7.00;58.10
11474;DHT22;5793;52.238;13.438;2023-02-28T13:57:19;7.00;58.00
11474;DHT22;5793;52.238;13.438;2023-02-28T13:59:56;6.90;58.50
11474;DHT22;5793;52.238;13.438;2023-02-28T14:02:41;6.80;59.40
11474;DHT22;5793;52.238;13.438;2023-02-28T14:05:14;6.50;58.20
11474;DHT22;5793;52.238;13.438;2023-02-28T14:07:46;6.50;59.50
11474;DHT22;5793;52.238;13.438;2023-02-28T14:10:25;6.40;60.50
11474;DHT22;5793;52.238;13.438;2023-02-28T14:12:55;6.40;61.20
11474;DHT22;5793;52.238;13.438;2023-02-28T14:15:43;6.50;60.20
11474;DHT22;5793;52.238;13.438;2023-02-28T14:18:25;6.40;60.40
11474;DHT22;5793;52.238;13.438;2023-02-28T14:20:58;6.40;59.80
11474;DHT22;5793;52.238;13.438;2023-02-28T14:23:58;6.20;62.00
11474;DHT22;5793;52.238;13.438;2023-02-28T14:26:44;6.10;64.70
11474;DHT22;5793;52.238;13.438;2023-02-28T14:29:30;6.10;64.70
11474;DHT22;5793;52.238;13.438;2023-02-28T14:32:10;6.00;62.20
11474;DHT22;5793;52.238;13.438;2023-02-28T14:34:44;6.00;63.00
11474;DHT22;5793;52.238;13.438;2023-02-28T14:37:20;5.80;63.50
11474;DHT22;5793;52.238;13.438;2023-02-28T14:39:50;5.90;63.40
11474;DHT22;5793;52.238;13.438;2023-02-28T14:42:28;6.00;63.00
11474;DHT22;5793;52.238;13.438;2023-02-28T14:44:57;6.00;63.00
11474;DHT22;5793;52.238;13.438;2023-02-28T14:47:28;6.00;64.00
11474;DHT22;5793;52.238;13.438;2023-02-28T14:49:57;5.90;63.80
11474;DHT22;5793;52.238;13.438;2023-02-28T14:52:27;6.00;64.30
11474;DHT22;5793;52.238;13.438;2023-02-28T14:54:57;6.00;67.40
11474;DHT22;5793;52.238;13.438;2023-02-28T14:57:28;6.00;66.60
11474;DHT22;5793;52.238;13.438;2023-02-28T15:00:03;5.90;66.90
11474;DHT22;5793;52.238;13.438;2023-02-28T15:02:38;5.90;66.70
11474;DHT22;5793;52.238;13.438;2023-02-28T15:05:21;5.90;63.60
11474;DHT22;5793;52.238;13.438;2023-02-28T15:08:01;6.00;64.00
11474;DHT22;5793;52.238;13.438;2023-02-28T15:10:29;5.90;67.60
11474;DHT22;5793;52.238;13.438;2023-02-28T15:13:00;5.80;70.00
11474;DHT22;5793;52.238;13.438;2023-02-28T15:15:40;5.90;67.40
11474;DHT22;5793;52.238;13.438;2023-02-28T15:18:31;5.70;67.50
11474;DHT22;5793;52.238;13.438;2023-02-28T15:21:04;5.60;70.60
11474;DHT22;5793;52.238;13.438;2023-02-28T15:23:35;5.70;70.50
11474;DHT22;5793;52.238;13.438;2023-02-28T15:26:04;5.60;72.40
11474;DHT22;5793;52.238;13.438;2023-02-28T15:28:34;5.40;73.20
11474;DHT22;5793;52.238;13.438;2023-02-28T15:31:03;5.30;73.50
11474;DHT22;5793;52.238;13.438;2023-02-28T15:33:53;5.40;73.90
11474;DHT22;5793;52.238;13.438;2023-02-28T15:36:24;5.40;74.80
11474;DHT22;5793;52.238;13.438;2023-02-28T15:38:54;5.40;73.90
11474;DHT22;5793;52.238;13.438;2023-02-28T15:41:36;5.30;85.30
11474;DHT22;5793;52.238;13.438;2023-02-28T15:44:24;5.20;90.60
11474;DHT22;5793;52.238;13.438;2023-02-28T15:46:57;5.40;90.60
11474;DHT22;5793;52.238;13.438;2023-02-28T15:49:26;5.20;87.60
11474;DHT22;5793;52.238;13.438;2023-02-28T15:51:59;5.20;90.50
11474;DHT22;5793;52.238;13.438;2023-02-28T15:54:29;5.00;90.00
11474;DHT22;5793;52.238;13.438;2023-02-28T15:57:03;4.90;82.40
11474;DHT22;5793;52.238;13.438;2023-02-28T15:59:35;4.80;91.90
11474;DHT22;5793;52.238;13.438;2023-02-28T16:02:16;4.80;92.50
11474;DHT22;5793;52.238;13.438;2023-02-28T16:05:00;4.70;95.40
11474;DHT22;5793;52.238;13.438;2023-02-28T16:07:29;4.70;97.10
11474;DHT22;5793;52.238;13.438;2023-02-28T16:09:56;4.60;97.80
11474;DHT22;5793;52.238;13.438;2023-02-28T16:12:28;4.50;99.90
11474;DHT22;5793;52.238;13.438;2023-02-28T16:14:59;4.40;99.90
11474;DHT22;5793;52.238;13.438;2023-02-28T16:17:31;4.40;99.90
11474;DHT22;5793;52.238;13.438;2023-02-28T16:20:00;4.30;99.90
11474;DHT22;5793;52.238;13.438;2023-02-28T16:22:30;4.20;99.90
11474;DHT22;5793;52.238;13.438;2023-02-28T16:24:58;3.90;99.90
11474;DHT22;5793;52.238;13.438;2023-02-28T16:27:30;3.90;99.90
11474;DHT22;5793;52.238;13.438;2023-02-28T16:30:00;3.80;99.90
11474;DHT22;5793;52.238;13.438;2023-02-28T16:32:28;3.70;99.90